Rowena, Missouri
Current Conditions -  °F | °C
As of 2:54 PM on Friday 24 Oct 2014 (Local Time) from KCOU Reporting Station
Few Clouds Few Clouds  
Wind Chill: 22°   Ceiling: Unl
Heat Index: 22°   Visibility: 10mi
Dew Point: 16°   Wind: 12mph
Humidity: 68%   Direction: 180°S
Pressure: 30.01"   Gusts: NA
Location:  39.2043°N, 92.1568°W
Report Text: KCOU 241954Z 18010KT 10SM FEW043 22/16 A3001 RMK AO2 SLP160 T02220161
Loading
Personal Weather Stations






























Interactive Weather Map
Tropical Storm Tracking
New forecast layout! Learn more

10-Day Weather Forecast

Advertisements
Track Severe Weather on mobile